createdAt,value
2019-05-11T00:00:35.124Z,100746.55
2019-05-11T00:03:04.511Z,100747.52
2019-05-11T00:05:35.614Z,100753.61
2019-05-11T00:08:05.296Z,100746.84
2019-05-11T00:10:44.062Z,100749.00
2019-05-11T00:13:13.430Z,100744.33
2019-05-11T00:15:44.108Z,100740.55
2019-05-11T00:18:13.519Z,100736.84
2019-05-11T00:20:43.062Z,100721.23
2019-05-11T00:23:12.724Z,100721.23
2019-05-11T00:25:42.168Z,100720.38
2019-05-11T00:28:11.665Z,100718.03
2019-05-11T00:31:50.990Z,100718.33
2019-05-11T00:34:20.354Z,100719.88
2019-05-11T00:36:50.020Z,100722.77
2019-05-11T00:39:19.400Z,100715.63
2019-05-11T00:41:54.726Z,100711.84
2019-05-11T00:44:24.249Z,100719.02
2019-05-11T00:46:53.617Z,100717.25
2019-05-11T00:49:23.239Z,100716.52
2019-05-11T00:51:54.498Z,100717.87
2019-05-11T00:54:24.156Z,100718.45
2019-05-11T00:56:53.513Z,100716.09
2019-05-11T00:59:23.106Z,100717.38
2019-05-11T01:01:54.436Z,100717.38
2019-05-11T01:04:24.046Z,100730.05
2019-05-11T01:06:53.432Z,100725.77
2019-05-11T01:09:23.085Z,100746.88
2019-05-11T01:12:32.822Z,100746.88
2019-05-11T01:15:02.413Z,100738.09
2019-05-11T01:17:32.095Z,100722.56
2019-05-11T01:20:01.917Z,100717.66
2019-05-11T01:22:31.307Z,100709.25
2019-05-11T01:25:00.678Z,100705.22
2019-05-11T01:27:30.174Z,100691.95
2019-05-11T01:29:59.537Z,100691.95
2019-05-11T01:32:29.203Z,100702.22
2019-05-11T01:34:58.663Z,100711.83
2019-05-11T01:37:29.516Z,100704.41
2019-05-11T01:39:59.170Z,100704.41
2019-05-11T01:42:28.551Z,100709.08
2019-05-11T01:44:58.207Z,100702.37
2019-05-11T01:47:27.661Z,100689.91
2019-05-11T01:49:57.312Z,100689.91
2019-05-11T01:52:26.691Z,100689.83
2019-05-11T01:54:56.675Z,100686.84
2019-05-11T01:57:26.379Z,100688.48
2019-05-11T01:59:56.734Z,100688.48
2019-05-11T02:02:27.333Z,100696.68
2019-05-11T02:05:14.389Z,100694.75
2019-05-11T02:07:43.770Z,100699.86
2019-05-11T02:10:13.499Z,100702.16
2019-05-11T02:12:42.881Z,100702.16
2019-05-11T02:15:12.874Z,100698.78
2019-05-11T02:17:42.386Z,100702.55
2019-05-11T02:20:12.011Z,100696.62
2019-05-11T02:22:41.671Z,100704.09
2019-05-11T02:25:11.063Z,100704.09
2019-05-11T02:27:41.506Z,100713.75
2019-05-11T02:30:11.411Z,100714.70
2019-05-11T02:32:40.754Z,100719.11
2019-05-11T02:35:10.867Z,100709.60
2019-05-11T02:37:40.581Z,100712.47
2019-05-11T02:40:10.522Z,100714.19
2019-05-11T02:42:40.056Z,100711.97
2019-05-11T02:45:09.948Z,100712.84
2019-05-11T02:47:39.499Z,100714.19
2019-05-11T02:50:09.224Z,100706.72
2019-05-11T02:52:38.950Z,100703.97
2019-05-11T02:55:10.932Z,100703.97
2019-05-11T02:57:40.527Z,100706.08
2019-05-11T03:00:10.394Z,100706.08
2019-05-11T03:03:04.585Z,100711.13
2019-05-11T03:05:34.000Z,100710.28
2019-05-11T03:08:03.680Z,100706.25
2019-05-11T03:10:33.041Z,100708.44
2019-05-11T03:13:02.720Z,100705.17
2019-05-11T03:15:32.381Z,100707.86
2019-05-11T03:18:01.801Z,100707.86
2019-05-11T03:20:33.510Z,100720.31
2019-05-11T03:23:02.868Z,100720.31
2019-05-11T03:25:32.544Z,100713.11
2019-05-11T03:28:01.900Z,100713.98
2019-05-11T03:30:32.706Z,100713.42
2019-05-11T03:33:02.262Z,100713.42
2019-05-11T03:35:31.628Z,100721.86
2019-05-11T03:38:00.982Z,100712.84
2019-05-11T03:40:30.666Z,100700.56
2019-05-11T03:43:00.349Z,100700.56
2019-05-11T03:45:29.696Z,100704.09
2019-05-11T03:47:59.083Z,100710.92
2019-05-11T03:50:28.561Z,100707.94
2019-05-11T03:52:58.924Z,100707.94
2019-05-11T03:55:28.582Z,100715.14
2019-05-11T03:57:57.963Z,100719.02
2019-05-11T04:00:27.643Z,100702.48
2019-05-11T04:03:21.889Z,100702.48
2019-05-11T04:05:51.567Z,100710.80
2019-05-11T04:08:20.981Z,100715.58
2019-05-11T04:10:50.661Z,100711.63
2019-05-11T04:13:20.038Z,100718.34
2019-05-11T04:15:49.820Z,100720.18
2019-05-11T04:18:19.183Z,100720.18
2019-05-11T04:20:48.636Z,100722.55
2019-05-11T04:23:18.066Z,100722.55
2019-05-11T04:25:48.749Z,100732.77
2019-05-11T04:28:18.101Z,100729.39
2019-05-11T04:30:47.724Z,100728.75
2019-05-11T04:33:17.090Z,100728.75
2019-05-11T04:35:46.764Z,100727.41
2019-05-11T04:38:16.138Z,100744.30
2019-05-11T04:40:45.782Z,100740.27
2019-05-11T04:43:15.146Z,100740.27
2019-05-11T04:45:45.742Z,100740.33
2019-05-11T04:48:15.128Z,100739.48
2019-05-11T04:50:44.774Z,100752.67
2019-05-11T04:53:14.761Z,100755.42
2019-05-11T04:55:44.135Z,100758.55
2019-05-11T04:58:13.804Z,100746.61
2019-05-11T05:00:43.163Z,100746.61
2019-05-11T05:03:12.797Z,100750.95
2019-05-11T05:05:42.179Z,100743.28
2019-05-11T05:08:11.832Z,100739.51
2019-05-11T05:10:52.387Z,100735.48
2019-05-11T05:13:23.376Z,100741.23
2019-05-11T05:15:53.362Z,100741.11
2019-05-11T05:18:22.789Z,100741.78
2019-05-11T05:20:53.052Z,100741.78
2019-05-11T05:23:22.726Z,100743.97
2019-05-11T05:28:34.163Z,100752.46
2019-05-11T05:31:09.843Z,100753.56
2019-05-11T05:33:39.204Z,100751.05
2019-05-11T05:36:09.866Z,100757.53
2019-05-11T05:38:39.236Z,100756.69
2019-05-11T05:41:09.083Z,100757.91
2019-05-11T05:43:38.701Z,100753.55
2019-05-11T05:46:09.086Z,100749.69
2019-05-11T05:48:38.762Z,100748.86
2019-05-11T05:51:09.341Z,100763.39
2019-05-11T05:53:38.823Z,100747.39
2019-05-11T05:56:08.512Z,100747.39
2019-05-11T05:58:37.931Z,100755.41
2019-05-11T06:01:10.088Z,100767.27
2019-05-11T06:03:38.746Z,100767.27
2019-05-11T06:06:08.378Z,100764.75
2019-05-11T06:08:37.871Z,100769.66
2019-05-11T06:11:07.291Z,100765.30
2019-05-11T06:13:45.304Z,100765.42
2019-05-11T06:16:08.428Z,100765.92
2019-05-11T06:18:37.935Z,100769.84
2019-05-11T06:21:08.292Z,100774.25
2019-05-11T06:23:38.013Z,100774.54
2019-05-11T06:26:07.427Z,100778.61
2019-05-11T06:28:37.060Z,100775.08
2019-05-11T06:31:06.548Z,100779.16
2019-05-11T06:33:35.953Z,100781.12
2019-05-11T06:36:05.377Z,100783.34
2019-05-11T06:38:34.914Z,100780.41
2019-05-11T06:41:04.610Z,100782.66
2019-05-11T06:43:34.072Z,100774.56
2019-05-11T06:46:03.451Z,100774.56
2019-05-11T06:48:32.965Z,100783.73
2019-05-11T06:51:08.082Z,100783.51
2019-05-11T06:53:37.451Z,100781.79
2019-05-11T06:56:07.101Z,100785.36
2019-05-11T06:58:36.527Z,100785.36
2019-05-11T07:01:06.330Z,100784.76
2019-05-11T07:03:36.023Z,100786.61
2019-05-11T07:06:05.405Z,100793.80
2019-05-11T07:08:34.999Z,100795.15
2019-05-11T07:11:04.375Z,100791.61
2019-05-11T07:13:34.032Z,100794.90
2019-05-11T07:16:04.494Z,100795.27
2019-05-11T07:18:34.304Z,100801.88
2019-05-11T07:21:03.985Z,100801.78
2019-05-11T07:23:33.375Z,100805.10
2019-05-11T07:26:03.356Z,100805.13
2019-05-11T07:28:33.018Z,100807.11
2019-05-11T07:31:02.797Z,100813.12
2019-05-11T07:33:32.179Z,100817.25
2019-05-11T07:36:01.543Z,100820.31
2019-05-11T07:38:32.547Z,100817.09
2019-05-11T07:41:02.209Z,100824.54
2019-05-11T07:43:31.585Z,100824.75
2019-05-11T07:46:01.247Z,100835.52
2019-05-11T07:48:30.632Z,100837.63
2019-05-11T07:51:00.302Z,100834.30
2019-05-11T07:54:03.028Z,100835.77
2019-05-11T07:56:32.393Z,100835.77
2019-05-11T07:59:01.782Z,100839.43
2019-05-11T08:01:31.287Z,100837.58
2019-05-11T08:04:00.658Z,100842.34
2019-05-11T08:06:30.187Z,100840.33
2019-05-11T08:08:59.553Z,100840.33
2019-05-11T08:11:31.481Z,100839.02
2019-05-11T08:14:00.549Z,100839.02
2019-05-11T08:16:30.355Z,100844.41
2019-05-11T08:18:59.721Z,100844.41
2019-05-11T08:21:29.318Z,100861.15
2019-05-11T08:23:59.011Z,100861.15
2019-05-11T08:26:28.551Z,100862.88
2019-05-11T08:28:58.236Z,100867.75
2019-05-11T08:31:28.677Z,100867.75
2019-05-11T08:33:58.494Z,100869.80
2019-05-11T08:36:28.996Z,100871.02
2019-05-11T08:38:58.799Z,100871.02
2019-05-11T08:41:28.535Z,100874.30
2019-05-11T08:43:58.616Z,100877.58
2019-05-11T08:46:28.341Z,100881.02
2019-05-11T08:48:59.495Z,100882.36
2019-05-11T08:51:28.801Z,100880.52
2019-05-11T08:53:59.464Z,100887.73
2019-05-11T08:56:29.050Z,100888.70
2019-05-11T08:58:58.755Z,100894.84
2019-05-11T09:01:28.875Z,100898.50
2019-05-11T09:03:58.646Z,100892.03
2019-05-11T09:06:29.978Z,100906.76
2019-05-11T09:08:59.647Z,100914.50
2019-05-11T09:11:29.262Z,100920.14
2019-05-11T09:13:58.952Z,100922.95
2019-05-11T09:16:29.374Z,100907.14
2019-05-11T09:18:58.783Z,100907.14
2019-05-11T09:21:31.246Z,100922.69
2019-05-11T09:24:00.628Z,100924.36
2019-05-11T09:26:30.291Z,100923.98
2019-05-11T09:28:59.678Z,100928.01
2019-05-11T09:31:29.336Z,100935.95
2019-05-11T09:33:58.833Z,100937.95
2019-05-11T09:36:28.772Z,100936.07
2019-05-11T09:38:59.442Z,100938.11
2019-05-11T09:41:29.079Z,100941.38
2019-05-11T09:43:58.884Z,100944.25
2019-05-11T09:46:28.487Z,100948.92
2019-05-11T09:48:59.236Z,100951.29
2019-05-11T09:51:28.862Z,100947.30
2019-05-11T09:53:58.887Z,100955.55
2019-05-11T09:56:28.871Z,100953.58
2019-05-11T09:58:58.581Z,100957.27
2019-05-11T10:01:29.644Z,100957.35
2019-05-11T10:03:59.091Z,100971.69
2019-05-11T10:06:28.591Z,100973.67
2019-05-11T10:08:58.095Z,100978.81
2019-05-11T10:11:28.228Z,100979.19
2019-05-11T10:13:57.995Z,100982.81
2019-05-11T10:16:28.152Z,100977.44
2019-05-11T10:18:59.110Z,100978.83
2019-05-11T10:21:29.606Z,100978.66
2019-05-11T10:23:58.985Z,100976.98
2019-05-11T10:26:28.580Z,100979.00
2019-05-11T10:28:58.628Z,100976.84
2019-05-11T10:31:29.580Z,100983.23
2019-05-11T10:33:59.032Z,100985.94
2019-05-11T10:36:28.660Z,100982.05
2019-05-11T10:38:58.867Z,100976.73
2019-05-11T10:41:30.520Z,100979.58
2019-05-11T10:43:59.928Z,100979.58
2019-05-11T10:46:29.612Z,100981.34
2019-05-11T10:48:59.039Z,100984.16
2019-05-11T10:51:29.619Z,100985.91
2019-05-11T10:53:59.050Z,100996.84
2019-05-11T10:56:28.672Z,100990.13
2019-05-11T10:58:59.322Z,100996.76
2019-05-11T11:01:28.802Z,101003.52
2019-05-11T11:03:58.820Z,100999.13
2019-05-11T11:06:28.377Z,100998.91
2019-05-11T11:08:58.143Z,101004.41
2019-05-11T11:11:27.984Z,100998.05
2019-05-11T11:13:58.599Z,100993.28
2019-05-11T11:16:36.883Z,100993.28
2019-05-11T11:18:59.179Z,101002.74
2019-05-11T11:21:28.800Z,101002.76
2019-05-11T11:23:58.731Z,101000.68
2019-05-11T11:26:28.614Z,101002.41
2019-05-11T11:28:59.780Z,101003.26
2019-05-11T11:31:29.168Z,101006.08
2019-05-11T11:33:58.903Z,101003.50
2019-05-11T11:36:28.601Z,101012.12
2019-05-11T11:38:58.472Z,101008.33
2019-05-11T11:41:30.080Z,101008.33
2019-05-11T11:44:00.769Z,101016.67
2019-05-11T11:46:30.147Z,101019.23
2019-05-11T11:48:59.800Z,101012.47
2019-05-11T11:51:29.187Z,101019.67
2019-05-11T11:53:58.843Z,101020.22
2019-05-11T11:56:28.456Z,101021.67
2019-05-11T11:58:58.205Z,101027.02
2019-05-11T12:01:29.522Z,101028.75
2019-05-11T12:04:00.222Z,101033.32
2019-05-11T12:06:29.880Z,101036.27
2019-05-11T12:08:59.263Z,101038.84
2019-05-11T12:11:30.833Z,101037.84
2019-05-11T12:14:01.584Z,101032.98
2019-05-11T12:16:30.964Z,101032.98
2019-05-11T12:19:00.337Z,101041.02
2019-05-11T12:21:31.195Z,101038.42
2019-05-11T12:24:00.853Z,101036.10
2019-05-11T12:26:30.235Z,101038.01
2019-05-11T12:29:00.119Z,101036.89
2019-05-11T12:31:32.520Z,101038.23
2019-05-11T12:34:00.851Z,101043.72
2019-05-11T12:36:32.677Z,101046.59
2019-05-11T12:39:02.160Z,101035.62
2019-05-11T12:41:34.548Z,101036.66
2019-05-11T12:44:04.414Z,101041.97
2019-05-11T12:46:36.655Z,101047.80
2019-05-11T12:49:07.324Z,101044.43
2019-05-11T12:51:38.416Z,101045.01
2019-05-11T12:54:08.401Z,101054.48
2019-05-11T12:56:38.454Z,101053.59
2019-05-11T12:59:08.388Z,101060.41
2019-05-11T13:01:38.382Z,101056.02
2019-05-11T13:04:08.970Z,101050.05
2019-05-11T13:06:38.841Z,101046.77
2019-05-11T13:09:08.564Z,101054.48
2019-05-11T13:11:38.872Z,101058.11
2019-05-11T13:14:08.316Z,101066.33
2019-05-11T13:16:38.124Z,101059.07
2019-05-11T13:19:08.532Z,101062.58
2019-05-11T13:21:38.954Z,101066.50
2019-05-11T13:24:08.559Z,101060.66
2019-05-11T13:26:38.306Z,101057.33
2019-05-11T13:29:08.264Z,101063.52
2019-05-11T13:31:40.545Z,101070.55
2019-05-11T13:34:10.205Z,101079.49
2019-05-11T13:36:39.590Z,101090.17
2019-05-11T13:39:09.253Z,101097.35
2019-05-11T13:41:47.656Z,101101.70
2019-05-11T13:44:18.575Z,101111.53
2019-05-11T13:46:48.338Z,101109.02
2019-05-11T13:49:18.036Z,101108.30
2019-05-11T13:51:48.636Z,101106.70
2019-05-11T13:54:18.623Z,101113.67
2019-05-11T13:56:48.489Z,101119.89
2019-05-11T13:59:18.817Z,101118.11
2019-05-11T14:01:48.434Z,101127.09
2019-05-11T14:06:49.174Z,101130.64
2019-05-11T14:09:18.699Z,101125.56
2019-05-11T14:11:50.321Z,101132.75
2019-05-11T14:14:19.677Z,101134.12
2019-05-11T14:16:49.328Z,101136.66
2019-05-11T14:19:20.062Z,101133.30
2019-05-11T14:21:49.441Z,101132.41
2019-05-11T14:24:20.080Z,101149.34
2019-05-11T14:26:49.501Z,101151.43
2019-05-11T14:29:19.142Z,101155.18
2019-05-11T14:32:00.788Z,101155.70
2019-05-11T14:32:21.066Z,101122.70
2019-05-11T14:34:30.318Z,101156.12
2019-05-11T14:36:59.697Z,101164.52
2019-05-11T14:39:29.254Z,101158.49
2019-05-11T14:41:58.882Z,101162.37
2019-05-11T14:44:28.644Z,101164.19
2019-05-11T14:46:59.285Z,101168.18
2019-05-11T14:49:28.731Z,101181.12
2019-05-11T14:51:58.602Z,101180.76
2019-05-11T14:54:28.883Z,101181.63
2019-05-11T14:56:59.485Z,101187.76
2019-05-11T14:59:29.142Z,101196.36
2019-05-11T15:02:01.551Z,101196.36
2019-05-11T15:04:31.113Z,101200.16
2019-05-11T15:07:00.721Z,101214.17
2019-05-11T15:09:30.268Z,101214.05
2019-05-11T15:11:59.652Z,101212.16
2019-05-11T15:14:29.266Z,101216.00
2019-05-11T15:16:58.678Z,101220.73
2019-05-11T15:19:28.390Z,101220.73
2019-05-11T15:22:02.915Z,101224.61
2019-05-11T15:24:32.379Z,101229.17
2019-05-11T15:27:02.048Z,101224.69
2019-05-11T15:29:31.429Z,101224.69
2019-05-11T15:32:08.498Z,101225.95
2019-05-11T15:34:38.010Z,101232.47
2019-05-11T15:37:09.693Z,101232.34
2019-05-11T15:39:39.411Z,101231.36
2019-05-11T15:42:14.626Z,101239.09
2019-05-11T15:44:39.865Z,101240.09
2019-05-11T15:47:09.614Z,101243.09
2019-05-11T15:49:39.833Z,101247.27
2019-05-11T15:52:09.536Z,101260.61
2019-05-11T15:54:38.916Z,101262.72
2019-05-11T15:57:08.627Z,101270.86
2019-05-11T15:59:38.823Z,101274.25
2019-05-11T16:02:08.751Z,101289.39
2019-05-11T16:04:41.401Z,101287.94
2019-05-11T16:07:09.727Z,101292.14
2019-05-11T16:09:39.403Z,101296.16
2019-05-11T16:12:08.770Z,101296.39
2019-05-11T16:14:38.453Z,101304.54
2019-05-11T16:17:08.762Z,101309.95
2019-05-11T16:19:41.126Z,101324.08
2019-05-11T16:22:10.095Z,101324.08
2019-05-11T16:24:40.189Z,101330.24
2019-05-11T16:27:10.914Z,101331.67
2019-05-11T16:29:40.448Z,101323.98
2019-05-11T16:32:10.115Z,101336.95
2019-05-11T16:34:45.252Z,101340.81
2019-05-11T16:37:14.783Z,101344.31
2019-05-11T16:39:46.762Z,101352.53
2019-05-11T16:42:15.742Z,101355.78
2019-05-11T16:44:45.412Z,101361.05
2019-05-11T16:47:14.799Z,101367.68
2019-05-11T16:49:45.149Z,101372.36
2019-05-11T16:53:05.379Z,101369.17
2019-05-11T16:55:34.762Z,101376.75
2019-05-11T16:58:04.425Z,101386.77
2019-05-11T17:00:43.532Z,101394.84
2019-05-11T17:03:12.921Z,101400.08
2019-05-11T17:05:42.572Z,101401.75
2019-05-11T17:08:11.998Z,101406.73
2019-05-11T17:10:43.267Z,101406.67
2019-05-11T17:13:12.927Z,101407.20
2019-05-11T17:15:42.585Z,101415.64
2019-05-11T17:18:11.965Z,101419.27
2019-05-11T17:20:41.633Z,101433.61
2019-05-11T17:23:11.288Z,101430.67
2019-05-11T17:25:42.315Z,101435.14
2019-05-11T17:28:11.900Z,101446.84
2019-05-11T17:30:44.805Z,101456.61
2019-05-11T17:33:14.162Z,101456.61
2019-05-11T17:35:43.621Z,101464.13
2019-05-11T17:38:14.300Z,101476.36
2019-05-11T17:40:43.771Z,101482.48
2019-05-11T17:43:13.135Z,101482.61
2019-05-11T17:45:42.752Z,101493.81
2019-05-11T17:48:12.193Z,101501.09
2019-05-11T17:50:41.735Z,101506.03
2019-05-11T17:53:11.094Z,101508.72
2019-05-11T17:55:40.756Z,101512.63
2019-05-11T17:58:10.147Z,101517.42
2019-05-11T18:00:39.759Z,101527.05
2019-05-11T18:03:11.280Z,101528.48
2019-05-11T18:05:41.078Z,101525.84
2019-05-11T18:08:11.008Z,101542.65
2019-05-11T18:10:40.387Z,101555.63
2019-05-11T18:13:10.317Z,101559.61
2019-05-11T18:15:39.844Z,101558.42
2019-05-11T18:18:09.622Z,101563.75
2019-05-11T18:20:43.567Z,101569.47
2019-05-11T18:23:13.227Z,101576.44
2019-05-11T18:25:42.821Z,101573.64
2019-05-11T18:28:14.251Z,101584.77
2019-05-11T18:30:43.270Z,101588.12
2019-05-11T18:33:12.928Z,101596.59
2019-05-11T18:35:42.597Z,101598.58
2019-05-11T18:38:12.020Z,101605.77
2019-05-11T18:40:41.465Z,101616.03
2019-05-11T18:43:11.072Z,101630.75
2019-05-11T18:45:40.793Z,101638.52
2019-05-11T18:48:10.416Z,101646.00
2019-05-11T18:50:39.825Z,101650.08
2019-05-11T18:53:09.479Z,101661.61
2019-05-11T18:55:38.967Z,101662.67
2019-05-11T18:58:08.286Z,101674.27
2019-05-11T19:00:38.252Z,101672.65
2019-05-11T19:03:08.862Z,101678.34
2019-05-11T19:05:38.685Z,101682.11
2019-05-11T19:08:08.389Z,101691.77
2019-05-11T19:10:38.502Z,101690.80
2019-05-11T19:13:08.155Z,101695.16
2019-05-11T19:15:38.807Z,101693.40
2019-05-11T19:18:08.373Z,101713.23
2019-05-11T19:20:50.871Z,101713.23
2019-05-11T19:23:21.823Z,101717.38
2019-05-11T19:25:51.206Z,101721.59
2019-05-11T19:28:20.865Z,101734.02
2019-05-11T19:30:50.253Z,101729.86
2019-05-11T19:33:19.897Z,101743.33
2019-05-11T19:35:49.276Z,101746.41
2019-05-11T19:38:19.089Z,101741.19
2019-05-11T19:40:48.847Z,101740.88
2019-05-11T19:43:18.727Z,101750.19
2019-05-11T19:45:48.729Z,101754.89
2019-05-11T19:48:18.163Z,101762.00
2019-05-11T19:51:02.643Z,101764.84
2019-05-11T19:53:18.974Z,101766.06
2019-05-11T19:55:48.355Z,101769.97
2019-05-11T19:58:19.224Z,101766.33
2019-05-11T20:00:49.043Z,101771.07
2019-05-11T20:03:18.429Z,101774.36
2019-05-11T20:05:48.741Z,101780.94
2019-05-11T20:08:18.562Z,101791.05
2019-05-11T20:10:49.145Z,101787.37
2019-05-11T20:13:18.574Z,101790.72
2019-05-11T20:15:48.559Z,101801.04
2019-05-11T20:18:18.509Z,101806.28
2019-05-11T20:20:48.208Z,101813.75
2019-05-11T20:23:54.169Z,101814.41
2019-05-11T20:26:23.567Z,101813.61
2019-05-11T20:28:53.128Z,101811.08
2019-05-11T20:31:22.783Z,101818.42
2019-05-11T20:33:52.165Z,101823.25
2019-05-11T20:36:21.518Z,101834.75
2019-05-11T20:38:51.110Z,101838.94
2019-05-11T20:41:20.471Z,101846.15
2019-05-11T20:43:50.170Z,101851.61
2019-05-11T20:46:20.743Z,101854.95
2019-05-11T20:48:50.127Z,101857.48
2019-05-11T20:51:50.041Z,101860.23
2019-05-11T20:54:20.178Z,101858.58
2019-05-11T20:56:49.536Z,101868.41
2019-05-11T20:59:19.065Z,101871.34
2019-05-11T21:01:48.495Z,101871.98
2019-05-11T21:04:19.068Z,101877.27
2019-05-11T21:06:48.423Z,101872.44
2019-05-11T21:09:18.550Z,101878.14
2019-05-11T21:11:48.418Z,101881.28
2019-05-11T21:14:18.319Z,101888.09
2019-05-11T21:16:48.686Z,101894.41
2019-05-11T21:19:18.796Z,101889.83
2019-05-11T21:21:53.646Z,101892.84
2019-05-11T21:24:21.298Z,101901.23
2019-05-11T21:26:50.654Z,101900.75
2019-05-11T21:29:21.317Z,101906.02
2019-05-11T21:31:54.275Z,101906.02
2019-05-11T21:34:23.848Z,101915.55
2019-05-11T21:36:53.290Z,101919.75
2019-05-11T21:39:22.738Z,101923.12
2019-05-11T21:41:58.342Z,101929.34
2019-05-11T21:44:28.097Z,101928.80
2019-05-11T21:47:12.958Z,101928.80
2019-05-11T21:50:10.931Z,101928.05
2019-05-11T21:52:41.462Z,101928.05
2019-05-11T21:55:11.703Z,101935.23
2019-05-11T21:57:41.299Z,101932.95
2019-05-11T22:00:11.438Z,101932.95
2019-05-11T22:02:44.880Z,101934.30
2019-05-11T22:05:14.720Z,101934.30
2019-05-11T22:07:44.415Z,101945.97
2019-05-11T22:10:17.781Z,101945.97
2019-05-11T22:12:49.047Z,101951.33
2019-05-11T22:15:18.776Z,101953.64
2019-05-11T22:17:48.292Z,101961.38
2019-05-11T22:20:18.352Z,101961.38
2019-05-11T22:22:48.006Z,101962.13
2019-05-11T22:25:18.281Z,101965.87
2019-05-11T22:27:48.752Z,101967.82
2019-05-11T22:30:18.809Z,101970.18
2019-05-11T22:32:48.310Z,101983.23
2019-05-11T22:35:18.291Z,101983.23
2019-05-11T22:37:48.984Z,101981.86
2019-05-11T22:40:18.702Z,101991.48
2019-05-11T22:42:48.408Z,101998.82
2019-05-11T22:45:18.710Z,101998.82
2019-05-11T22:47:48.366Z,101996.66
2019-05-11T22:50:18.946Z,101996.66
2019-05-11T22:52:48.763Z,102004.44
2019-05-11T22:55:19.069Z,102004.44
2019-05-11T22:57:48.759Z,102011.59
2019-05-11T23:00:21.570Z,102017.02
2019-05-11T23:02:51.238Z,102014.98
2019-05-11T23:05:20.603Z,102020.94
2019-05-11T23:07:50.000Z,102016.67
2019-05-11T23:10:19.498Z,102032.11
2019-05-11T23:12:48.864Z,102032.11
2019-05-11T23:15:19.691Z,102039.88
2019-05-11T23:17:49.357Z,102041.86
2019-05-11T23:20:18.966Z,102048.22
2019-05-11T23:22:58.007Z,102053.64
2019-05-11T23:25:19.961Z,102053.69
2019-05-11T23:27:49.537Z,102053.34
2019-05-11T23:30:19.985Z,102056.62
2019-05-11T23:32:49.921Z,102068.77
2019-05-11T23:35:19.742Z,102065.24
2019-05-11T23:37:50.004Z,102066.66
2019-05-11T23:40:19.928Z,102067.66
2019-05-11T23:42:49.624Z,102069.92
2019-05-11T23:45:19.399Z,102083.41
2019-05-11T23:47:49.237Z,102083.93
2019-05-11T23:50:19.758Z,102087.20
2019-05-11T23:53:05.127Z,102091.28
2019-05-11T23:55:20.496Z,102095.41
2019-05-11T23:57:49.861Z,102091.53
